sensor_id;sensor_type;location;lat;lon;timestamp;pressure;altitude;pressure_sealevel;temperature;humidity
37174;BME280;23068;51.430;5.540;2022-08-14T00:05:35;100993.31;;;20.78;68.74
37174;BME280;23068;51.430;5.540;2022-08-14T00:11:35;100985.78;;;20.73;70.22
37174;BME280;23068;51.430;5.540;2022-08-14T00:17:36;100974.50;;;20.76;69.25
37174;BME280;23068;51.430;5.540;2022-08-14T00:23:36;100969.88;;;20.77;69.94
37174;BME280;23068;51.430;5.540;2022-08-14T00:29:37;100962.63;;;20.84;68.13
37174;BME280;23068;51.430;5.540;2022-08-14T00:35:37;100956.94;;;20.79;69.08
37174;BME280;23068;51.430;5.540;2022-08-14T00:41:37;100950.78;;;20.70;66.73
37174;BME280;23068;51.430;5.540;2022-08-14T00:47:39;100944.16;;;20.73;67.17
37174;BME280;23068;51.430;5.540;2022-08-14T00:53:40;100935.97;;;20.73;66.76
37174;BME280;23068;51.430;5.540;2022-08-14T00:59:40;100936.56;;;20.68;66.14
37174;BME280;23068;51.430;5.540;2022-08-14T01:05:41;100924.91;;;20.74;65.45
37174;BME280;23068;51.430;5.540;2022-08-14T01:11:42;100912.47;;;20.65;66.29
37174;BME280;23068;51.430;5.540;2022-08-14T01:17:42;100903.63;;;20.57;67.29
37174;BME280;23068;51.430;5.540;2022-08-14T01:23:48;100899.63;;;20.52;65.38
37174;BME280;23068;51.430;5.540;2022-08-14T01:29:51;100901.25;;;20.47;65.00
37174;BME280;23068;51.430;5.540;2022-08-14T01:35:52;100899.50;;;20.39;65.47
37174;BME280;23068;51.430;5.540;2022-08-14T01:41:52;100887.97;;;20.37;65.28
37174;BME280;23068;51.430;5.540;2022-08-14T01:47:52;100896.16;;;20.44;63.92
37174;BME280;23068;51.430;5.540;2022-08-14T01:53:58;100910.63;;;20.44;64.11
37174;BME280;23068;51.430;5.540;2022-08-14T01:59:59;100908.03;;;20.36;64.26
37174;BME280;23068;51.430;5.540;2022-08-14T02:06:00;100887.31;;;20.35;63.28
37174;BME280;23068;51.430;5.540;2022-08-14T02:12:02;100894.97;;;20.25;63.84
37174;BME280;23068;51.430;5.540;2022-08-14T02:18:03;100888.25;;;20.21;63.54
37174;BME280;23068;51.430;5.540;2022-08-14T02:24:04;100887.19;;;20.22;63.47
37174;BME280;23068;51.430;5.540;2022-08-14T02:30:05;100887.34;;;20.14;64.76
37174;BME280;23068;51.430;5.540;2022-08-14T02:36:06;100884.19;;;20.10;65.36
37174;BME280;23068;51.430;5.540;2022-08-14T02:42:09;100881.41;;;20.04;65.92
37174;BME280;23068;51.430;5.540;2022-08-14T02:48:11;100877.72;;;19.90;65.90
37174;BME280;23068;51.430;5.540;2022-08-14T02:54:12;100884.19;;;19.89;66.35
37174;BME280;23068;51.430;5.540;2022-08-14T03:00:12;100881.84;;;19.86;66.42
37174;BME280;23068;51.430;5.540;2022-08-14T03:06:14;100871.94;;;19.78;66.93
37174;BME280;23068;51.430;5.540;2022-08-14T03:12:14;100862.06;;;19.70;69.21
37174;BME280;23068;51.430;5.540;2022-08-14T03:18:15;100864.06;;;19.62;69.93
37174;BME280;23068;51.430;5.540;2022-08-14T03:24:15;100867.03;;;19.52;70.51
37174;BME280;23068;51.430;5.540;2022-08-14T03:30:15;100868.72;;;19.38;72.65
37174;BME280;23068;51.430;5.540;2022-08-14T03:36:17;100864.91;;;19.33;73.94
37174;BME280;23068;51.430;5.540;2022-08-14T03:42:18;100853.91;;;19.20;75.70
37174;BME280;23068;51.430;5.540;2022-08-14T03:48:18;100855.03;;;19.10;76.25
37174;BME280;23068;51.430;5.540;2022-08-14T03:54:19;100853.53;;;19.08;76.73
37174;BME280;23068;51.430;5.540;2022-08-14T04:00:19;100867.84;;;19.02;77.79
37174;BME280;23068;51.430;5.540;2022-08-14T04:06:20;100854.94;;;18.89;78.40
37174;BME280;23068;51.430;5.540;2022-08-14T04:12:20;100852.03;;;18.76;80.17
37174;BME280;23068;51.430;5.540;2022-08-14T04:18:21;100850.78;;;18.63;82.07
37174;BME280;23068;51.430;5.540;2022-08-14T04:24:21;100843.13;;;18.52;84.32
37174;BME280;23068;51.430;5.540;2022-08-14T04:30:21;100847.78;;;18.44;87.42
37174;BME280;23068;51.430;5.540;2022-08-14T04:36:22;100833.75;;;18.40;88.41
37174;BME280;23068;51.430;5.540;2022-08-14T04:42:22;100828.00;;;18.43;88.27
37174;BME280;23068;51.430;5.540;2022-08-14T04:48:22;100825.00;;;18.53;86.70
37174;BME280;23068;51.430;5.540;2022-08-14T04:54:26;100816.69;;;18.54;84.55
37174;BME280;23068;51.430;5.540;2022-08-14T05:00:26;100812.78;;;18.57;85.29
37174;BME280;23068;51.430;5.540;2022-08-14T05:06:27;100814.19;;;18.68;84.30
37174;BME280;23068;51.430;5.540;2022-08-14T05:12:27;100809.34;;;18.78;84.60
37174;BME280;23068;51.430;5.540;2022-08-14T05:18:29;100807.66;;;18.92;84.12
37174;BME280;23068;51.430;5.540;2022-08-14T05:24:30;100807.25;;;18.95;83.35
37174;BME280;23068;51.430;5.540;2022-08-14T05:30:30;100805.16;;;19.11;83.55
37174;BME280;23068;51.430;5.540;2022-08-14T05:36:30;100803.28;;;19.27;82.39
37174;BME280;23068;51.430;5.540;2022-08-14T05:42:30;100801.81;;;19.45;82.04
37174;BME280;23068;51.430;5.540;2022-08-14T05:48:31;100793.78;;;19.74;79.83
37174;BME280;23068;51.430;5.540;2022-08-14T05:54:31;100791.09;;;20.02;78.97
37174;BME280;23068;51.430;5.540;2022-08-14T06:00:35;100792.50;;;20.19;78.48
37174;BME280;23068;51.430;5.540;2022-08-14T06:06:35;100784.09;;;20.42;77.80
37174;BME280;23068;51.430;5.540;2022-08-14T06:12:37;100796.22;;;20.67;76.98
37174;BME280;23068;51.430;5.540;2022-08-14T06:18:37;100792.84;;;21.06;74.49
37174;BME280;23068;51.430;5.540;2022-08-14T06:24:37;100785.22;;;21.30;73.04
37174;BME280;23068;51.430;5.540;2022-08-14T06:30:38;100778.81;;;21.97;70.35
37174;BME280;23068;51.430;5.540;2022-08-14T06:36:38;100777.34;;;22.01;70.21
37174;BME280;23068;51.430;5.540;2022-08-14T06:42:39;100769.59;;;22.18;69.26
37174;BME280;23068;51.430;5.540;2022-08-14T06:48:39;100767.88;;;22.57;68.43
37174;BME280;23068;51.430;5.540;2022-08-14T06:54:40;100764.22;;;22.96;65.78
37174;BME280;23068;51.430;5.540;2022-08-14T07:00:41;100762.81;;;23.25;63.72
37174;BME280;23068;51.430;5.540;2022-08-14T07:06:41;100757.00;;;23.46;62.63
37174;BME280;23068;51.430;5.540;2022-08-14T07:12:41;100756.94;;;23.60;61.58
37174;BME280;23068;51.430;5.540;2022-08-14T07:18:42;100748.09;;;23.89;60.24
37174;BME280;23068;51.430;5.540;2022-08-14T07:24:42;100750.72;;;24.02;59.97
37174;BME280;23068;51.430;5.540;2022-08-14T07:30:43;100753.28;;;24.22;59.26
37174;BME280;23068;51.430;5.540;2022-08-14T07:36:44;100747.78;;;24.66;57.40
37174;BME280;23068;51.430;5.540;2022-08-14T07:42:44;100741.38;;;25.08;57.03
37174;BME280;23068;51.430;5.540;2022-08-14T07:48:44;100742.53;;;25.31;54.92
37174;BME280;23068;51.430;5.540;2022-08-14T07:54:44;100747.72;;;25.39;54.24
37174;BME280;23068;51.430;5.540;2022-08-14T08:00:45;100754.03;;;25.81;53.59
37174;BME280;23068;51.430;5.540;2022-08-14T08:06:45;100747.50;;;25.94;51.13
37174;BME280;23068;51.430;5.540;2022-08-14T08:12:46;100748.81;;;26.27;51.23
37174;BME280;23068;51.430;5.540;2022-08-14T08:18:46;100735.25;;;26.43;50.27
37174;BME280;23068;51.430;5.540;2022-08-14T08:24:46;100722.53;;;26.77;48.71
37174;BME280;23068;51.430;5.540;2022-08-14T08:30:49;100715.53;;;26.98;47.70
37174;BME280;23068;51.430;5.540;2022-08-14T08:36:50;100717.69;;;27.25;47.53
37174;BME280;23068;51.430;5.540;2022-08-14T08:42:50;100725.22;;;27.29;45.14
37174;BME280;23068;51.430;5.540;2022-08-14T08:48:54;100721.56;;;27.69;45.37
37174;BME280;23068;51.430;5.540;2022-08-14T08:54:54;100709.28;;;27.94;43.72
37174;BME280;23068;51.430;5.540;2022-08-14T09:00:57;100710.25;;;28.21;41.71
37174;BME280;23068;51.430;5.540;2022-08-14T09:06:57;100696.69;;;28.53;41.60
37174;BME280;23068;51.430;5.540;2022-08-14T09:12:58;100690.59;;;28.73;40.48
37174;BME280;23068;51.430;5.540;2022-08-14T09:18:58;100683.94;;;29.18;41.20
37174;BME280;23068;51.430;5.540;2022-08-14T09:24:59;100682.84;;;29.19;42.44
37174;BME280;23068;51.430;5.540;2022-08-14T09:31:00;100687.06;;;29.27;42.46
37174;BME280;23068;51.430;5.540;2022-08-14T09:49:59;100661.91;;;29.82;39.08
37174;BME280;23068;51.430;5.540;2022-08-14T09:56:00;100659.66;;;30.11;36.37
37174;BME280;23068;51.430;5.540;2022-08-14T10:02:00;100649.13;;;30.61;35.88
37174;BME280;23068;51.430;5.540;2022-08-14T10:08:02;100648.66;;;30.21;36.34
37174;BME280;23068;51.430;5.540;2022-08-14T10:14:17;100625.53;;;30.33;35.63
37174;BME280;23068;51.430;5.540;2022-08-14T10:20:18;100629.72;;;30.45;35.63
37174;BME280;23068;51.430;5.540;2022-08-14T10:26:19;100627.84;;;30.61;36.52
37174;BME280;23068;51.430;5.540;2022-08-14T10:32:20;100619.59;;;30.71;36.96
37174;BME280;23068;51.430;5.540;2022-08-14T10:38:27;100615.94;;;30.55;36.11
37174;BME280;23068;51.430;5.540;2022-08-14T10:44:33;100597.69;;;30.39;38.10
37174;BME280;23068;51.430;5.540;2022-08-14T10:50:35;100605.66;;;30.36;37.34
37174;BME280;23068;51.430;5.540;2022-08-14T10:56:36;100596.31;;;30.52;36.37
37174;BME280;23068;51.430;5.540;2022-08-14T11:02:36;100596.16;;;31.15;35.54
37174;BME280;23068;51.430;5.540;2022-08-14T11:08:36;100588.19;;;31.28;34.25
37174;BME280;23068;51.430;5.540;2022-08-14T11:14:54;100580.59;;;32.05;34.22
37174;BME280;23068;51.430;5.540;2022-08-14T11:20:56;100578.19;;;31.83;33.43
37174;BME280;23068;51.430;5.540;2022-08-14T11:26:58;100570.16;;;31.92;32.21
37174;BME280;23068;51.430;5.540;2022-08-14T11:32:59;100563.44;;;32.03;31.91
37174;BME280;23068;51.430;5.540;2022-08-14T11:38:59;100568.50;;;31.86;32.22
37174;BME280;23068;51.430;5.540;2022-08-14T11:45:04;100538.94;;;31.20;33.00
37174;BME280;23068;51.430;5.540;2022-08-14T11:51:21;100532.22;;;31.87;30.83
37174;BME280;23068;51.430;5.540;2022-08-14T11:57:22;100523.66;;;32.49;30.51
37174;BME280;23068;51.430;5.540;2022-08-14T12:03:22;100504.31;;;32.38;29.29
37174;BME280;23068;51.430;5.540;2022-08-14T12:09:34;100516.19;;;32.83;28.25
37174;BME280;23068;51.430;5.540;2022-08-14T12:15:34;100507.56;;;32.51;28.42
37174;BME280;23068;51.430;5.540;2022-08-14T12:21:35;100498.72;;;32.88;27.82
37174;BME280;23068;51.430;5.540;2022-08-14T12:33:36;100482.38;;;32.86;28.69
37174;BME280;23068;51.430;5.540;2022-08-14T12:39:37;100471.47;;;32.95;28.38
37174;BME280;23068;51.430;5.540;2022-08-14T12:45:37;100460.47;;;33.43;27.02
37174;BME280;23068;51.430;5.540;2022-08-14T12:51:38;100454.72;;;33.34;26.67
37174;BME280;23068;51.430;5.540;2022-08-14T12:57:42;100447.63;;;32.60;29.31
37174;BME280;23068;51.430;5.540;2022-08-14T13:03:44;100448.63;;;33.08;28.23
37174;BME280;23068;51.430;5.540;2022-08-14T13:09:44;100439.47;;;33.08;27.12
37174;BME280;23068;51.430;5.540;2022-08-14T13:15:46;100440.13;;;32.65;28.79
37174;BME280;23068;51.430;5.540;2022-08-14T13:21:50;100435.00;;;32.49;29.35
37174;BME280;23068;51.430;5.540;2022-08-14T13:27:56;100424.88;;;33.50;27.82
37174;BME280;23068;51.430;5.540;2022-08-14T13:33:57;100416.19;;;33.57;27.02
37174;BME280;23068;51.430;5.540;2022-08-14T13:39:57;100431.31;;;33.69;26.86
37174;BME280;23068;51.430;5.540;2022-08-14T13:45:57;100409.03;;;33.74;27.00
37174;BME280;23068;51.430;5.540;2022-08-14T13:51:59;100396.66;;;33.86;27.22
37174;BME280;23068;51.430;5.540;2022-08-14T13:58:02;100403.53;;;33.69;26.31
37174;BME280;23068;51.430;5.540;2022-08-14T14:04:03;100379.88;;;33.96;26.05
37174;BME280;23068;51.430;5.540;2022-08-14T14:10:07;100368.13;;;34.37;25.42
37174;BME280;23068;51.430;5.540;2022-08-14T14:16:08;100368.41;;;34.54;25.47
37174;BME280;23068;51.430;5.540;2022-08-14T14:22:08;100362.31;;;33.81;25.48
37174;BME280;23068;51.430;5.540;2022-08-14T14:28:10;100361.28;;;33.96;26.67
37174;BME280;23068;51.430;5.540;2022-08-14T14:34:15;100350.81;;;33.69;26.31
37174;BME280;23068;51.430;5.540;2022-08-14T14:40:15;100356.22;;;33.37;26.82
37174;BME280;23068;51.430;5.540;2022-08-14T14:46:17;100345.03;;;33.47;26.30
37174;BME280;23068;51.430;5.540;2022-08-14T14:52:18;100345.53;;;33.49;26.75
